sensor_id;sensor_type;location;lat;lon;timestamp;pressure;altitude;pressure_sealevel;temperature;humidity
66887;BME280;53798;51.680;5.976;2022-09-24T00:01:38;101222.19;;;13.17;89.68
66887;BME280;53798;51.680;5.976;2022-09-24T00:04:09;101222.19;;;13.17;89.48
66887;BME280;53798;51.680;5.976;2022-09-24T00:06:43;101221.38;;;13.15;89.78
66887;BME280;53798;51.680;5.976;2022-09-24T00:09:16;101217.84;;;13.14;89.84
66887;BME280;53798;51.680;5.976;2022-09-24T00:11:45;101216.13;;;13.13;90.10
66887;BME280;53798;51.680;5.976;2022-09-24T00:14:12;101210.88;;;13.12;90.23
66887;BME280;53798;51.680;5.976;2022-09-24T00:16:40;101210.03;;;13.11;90.22
66887;BME280;53798;51.680;5.976;2022-09-24T00:19:11;101204.78;;;13.10;90.26
66887;BME280;53798;51.680;5.976;2022-09-24T00:21:40;101207.41;;;13.10;90.27
66887;BME280;53798;51.680;5.976;2022-09-24T00:24:14;101205.75;;;13.07;90.34
66887;BME280;53798;51.680;5.976;2022-09-24T00:27:04;101210.13;;;13.08;90.41
66887;BME280;53798;51.680;5.976;2022-09-24T00:29:33;101213.75;;;13.05;90.50
66887;BME280;53798;51.680;5.976;2022-09-24T00:32:03;101210.22;;;13.05;90.61
66887;BME280;53798;51.680;5.976;2022-09-24T00:34:31;101207.72;;;13.02;90.55
66887;BME280;53798;51.680;5.976;2022-09-24T00:36:59;101210.38;;;13.02;90.67
66887;BME280;53798;51.680;5.976;2022-09-24T00:39:26;101208.63;;;13.01;90.83
66887;BME280;53798;51.680;5.976;2022-09-24T00:41:54;101207.84;;;12.97;90.96
66887;BME280;53798;51.680;5.976;2022-09-24T00:50:23;101206.13;;;12.96;91.08
66887;BME280;53798;51.680;5.976;2022-09-24T00:53:03;101201.69;;;12.97;91.21
66887;BME280;53798;51.680;5.976;2022-09-24T00:55:36;101203.50;;;12.96;91.39
66887;BME280;53798;51.680;5.976;2022-09-24T00:58:07;101192.94;;;12.95;91.43
66887;BME280;53798;51.680;5.976;2022-09-24T01:00:38;101192.91;;;12.96;91.31
66887;BME280;53798;51.680;5.976;2022-09-24T01:03:11;101191.22;;;12.94;91.52
66887;BME280;53798;51.680;5.976;2022-09-24T01:05:42;101183.41;;;12.91;91.44
66887;BME280;53798;51.680;5.976;2022-09-24T01:08:12;101179.03;;;12.89;91.46
66887;BME280;53798;51.680;5.976;2022-09-24T01:11:10;101188.72;;;12.89;91.45
66887;BME280;53798;51.680;5.976;2022-09-24T01:17:22;101174.00;;;12.82;91.37
66887;BME280;53798;51.680;5.976;2022-09-24T01:29:20;101150.34;;;12.77;91.90
66887;BME280;53798;51.680;5.976;2022-09-24T01:32:01;101155.63;;;12.77;92.08
66887;BME280;53798;51.680;5.976;2022-09-24T01:34:46;101146.78;;;12.78;92.32
66887;BME280;53798;51.680;5.976;2022-09-24T01:37:27;101151.19;;;12.78;92.04
66887;BME280;53798;51.680;5.976;2022-09-24T01:40:00;101152.97;;;12.77;92.35
66887;BME280;53798;51.680;5.976;2022-09-24T01:42:30;101147.69;;;12.77;92.28
66887;BME280;53798;51.680;5.976;2022-09-24T01:45:00;101145.03;;;12.77;92.31
66887;BME280;53798;51.680;5.976;2022-09-24T01:47:31;101139.69;;;12.79;92.39
66887;BME280;53798;51.680;5.976;2022-09-24T01:50:15;101133.56;;;12.78;92.40
66887;BME280;53798;51.680;5.976;2022-09-24T01:53:02;101135.31;;;12.78;92.43
66887;BME280;53798;51.680;5.976;2022-09-24T01:55:42;101123.81;;;12.79;92.48
66887;BME280;53798;51.680;5.976;2022-09-24T01:58:21;101125.63;;;12.78;92.55
66887;BME280;53798;51.680;5.976;2022-09-24T02:00:57;101126.47;;;12.79;92.39
66887;BME280;53798;51.680;5.976;2022-09-24T02:03:35;101123.88;;;12.77;92.34
66887;BME280;53798;51.680;5.976;2022-09-24T02:06:14;101124.88;;;12.74;92.47
66887;BME280;53798;51.680;5.976;2022-09-24T02:08:47;101123.13;;;12.73;92.47
66887;BME280;53798;51.680;5.976;2022-09-24T02:11:17;101115.19;;;12.73;92.40
66887;BME280;53798;51.680;5.976;2022-09-24T02:13:55;101121.25;;;12.77;92.58
66887;BME280;53798;51.680;5.976;2022-09-24T02:16:32;101113.31;;;12.77;92.58
66887;BME280;53798;51.680;5.976;2022-09-24T02:19:06;101125.56;;;12.80;92.63
66887;BME280;53798;51.680;5.976;2022-09-24T02:21:39;101116.69;;;12.81;92.61
66887;BME280;53798;51.680;5.976;2022-09-24T02:24:14;101122.88;;;12.81;92.50
66887;BME280;53798;51.680;5.976;2022-09-24T02:26:45;101111.41;;;12.81;92.57
66887;BME280;53798;51.680;5.976;2022-09-24T02:29:13;101113.22;;;12.79;92.59
66887;BME280;53798;51.680;5.976;2022-09-24T02:31:44;101108.75;;;12.81;92.48
66887;BME280;53798;51.680;5.976;2022-09-24T02:34:19;101105.31;;;12.79;92.62
66887;BME280;53798;51.680;5.976;2022-09-24T02:36:57;101107.84;;;12.82;92.48
66887;BME280;53798;51.680;5.976;2022-09-24T02:39:26;101102.66;;;12.79;92.49
66887;BME280;53798;51.680;5.976;2022-09-24T02:41:53;101100.00;;;12.79;92.68
66887;BME280;53798;51.680;5.976;2022-09-24T02:44:22;101100.81;;;12.81;92.57
66887;BME280;53798;51.680;5.976;2022-09-24T02:46:50;101101.72;;;12.81;92.54
66887;BME280;53798;51.680;5.976;2022-09-24T02:49:17;101107.00;;;12.81;92.67
66887;BME280;53798;51.680;5.976;2022-09-24T02:51:44;101107.03;;;12.80;92.63
66887;BME280;53798;51.680;5.976;2022-09-24T02:54:11;101098.19;;;12.81;92.56
66887;BME280;53798;51.680;5.976;2022-09-24T02:56:39;101100.88;;;12.79;92.71
66887;BME280;53798;51.680;5.976;2022-09-24T02:59:07;101099.97;;;12.80;92.74
66887;BME280;53798;51.680;5.976;2022-09-24T03:01:44;101099.91;;;12.82;92.58
66887;BME280;53798;51.680;5.976;2022-09-24T03:04:14;101101.81;;;12.78;92.81
66887;BME280;53798;51.680;5.976;2022-09-24T03:06:42;101099.16;;;12.78;92.75
66887;BME280;53798;51.680;5.976;2022-09-24T03:09:12;101102.66;;;12.79;92.60
66887;BME280;53798;51.680;5.976;2022-09-24T03:11:39;101096.50;;;12.78;92.63
66887;BME280;53798;51.680;5.976;2022-09-24T03:14:06;101094.78;;;12.77;92.55
66887;BME280;53798;51.680;5.976;2022-09-24T03:16:34;101086.84;;;12.77;92.65
66887;BME280;53798;51.680;5.976;2022-09-24T03:19:01;101087.75;;;12.76;92.71
66887;BME280;53798;51.680;5.976;2022-09-24T03:21:28;101086.91;;;12.76;92.69
66887;BME280;53798;51.680;5.976;2022-09-24T03:23:56;101083.34;;;12.77;92.64
66887;BME280;53798;51.680;5.976;2022-09-24T03:26:23;101094.84;;;12.76;92.53
66887;BME280;53798;51.680;5.976;2022-09-24T03:28:51;101081.63;;;12.76;92.75
66887;BME280;53798;51.680;5.976;2022-09-24T03:31:18;101083.44;;;12.73;92.65
66887;BME280;53798;51.680;5.976;2022-09-24T03:33:47;101084.31;;;12.74;92.78
66887;BME280;53798;51.680;5.976;2022-09-24T03:36:18;101085.19;;;12.74;92.74
66887;BME280;53798;51.680;5.976;2022-09-24T03:38:50;101079.94;;;12.73;92.77
66887;BME280;53798;51.680;5.976;2022-09-24T03:41:27;101086.09;;;12.73;92.84
66887;BME280;53798;51.680;5.976;2022-09-24T03:43:54;101085.34;;;12.70;92.94
66887;BME280;53798;51.680;5.976;2022-09-24T03:46:22;101090.63;;;12.70;92.80
66887;BME280;53798;51.680;5.976;2022-09-24T03:48:57;101077.44;;;12.68;92.93
66887;BME280;53798;51.680;5.976;2022-09-24T03:51:26;101078.34;;;12.67;92.99
66887;BME280;53798;51.680;5.976;2022-09-24T03:53:53;101084.53;;;12.68;93.13
66887;BME280;53798;51.680;5.976;2022-09-24T03:56:20;101080.16;;;12.67;93.01
66887;BME280;53798;51.680;5.976;2022-09-24T03:58:47;101074.88;;;12.67;93.18
66887;BME280;53798;51.680;5.976;2022-09-24T04:01:15;101072.28;;;12.65;93.22
66887;BME280;53798;51.680;5.976;2022-09-24T04:03:48;101068.72;;;12.66;93.45
66887;BME280;53798;51.680;5.976;2022-09-24T04:06:16;101074.00;;;12.66;93.21
66887;BME280;53798;51.680;5.976;2022-09-24T04:08:51;101075.72;;;12.67;93.37
66887;BME280;53798;51.680;5.976;2022-09-24T04:11:18;101069.56;;;12.67;93.47
66887;BME280;53798;51.680;5.976;2022-09-24T04:13:46;101066.94;;;12.67;93.56
66887;BME280;53798;51.680;5.976;2022-09-24T04:16:13;101066.94;;;12.67;93.47
66887;BME280;53798;51.680;5.976;2022-09-24T04:18:40;101074.88;;;12.67;93.34
66887;BME280;53798;51.680;5.976;2022-09-24T04:21:07;101071.38;;;12.66;93.68
66887;BME280;53798;51.680;5.976;2022-09-24T04:23:35;101065.13;;;12.67;93.61
66887;BME280;53798;51.680;5.976;2022-09-24T04:26:02;101066.00;;;12.68;93.56
66887;BME280;53798;51.680;5.976;2022-09-24T04:28:29;101061.63;;;12.67;93.51
66887;BME280;53798;51.680;5.976;2022-09-24T04:30:57;101057.19;;;12.67;93.81
66887;BME280;53798;51.680;5.976;2022-09-24T04:33:24;101046.63;;;12.67;93.75
66887;BME280;53798;51.680;5.976;2022-09-24T04:35:52;101046.69;;;12.66;93.55
66887;BME280;53798;51.680;5.976;2022-09-24T04:38:19;101043.97;;;12.67;93.92
66887;BME280;53798;51.680;5.976;2022-09-24T04:40:47;101048.41;;;12.67;93.87
66887;BME280;53798;51.680;5.976;2022-09-24T04:43:17;101044.84;;;12.68;93.73
66887;BME280;53798;51.680;5.976;2022-09-24T04:45:45;101053.59;;;12.70;93.83
66887;BME280;53798;51.680;5.976;2022-09-24T04:48:13;101050.06;;;12.69;93.84
66887;BME280;53798;51.680;5.976;2022-09-24T04:50:41;101050.06;;;12.69;93.88
66887;BME280;53798;51.680;5.976;2022-09-24T04:53:13;101049.22;;;12.69;93.77
66887;BME280;53798;51.680;5.976;2022-09-24T04:55:41;101046.59;;;12.69;93.80
66887;BME280;53798;51.680;5.976;2022-09-24T04:58:16;101041.22;;;12.70;93.83
66887;BME280;53798;51.680;5.976;2022-09-24T05:00:46;101048.31;;;12.70;93.84
66887;BME280;53798;51.680;5.976;2022-09-24T05:03:14;101056.19;;;12.71;93.90
66887;BME280;53798;51.680;5.976;2022-09-24T05:05:45;101053.53;;;12.71;93.90
66887;BME280;53798;51.680;5.976;2022-09-24T05:08:13;101051.75;;;12.72;93.95
66887;BME280;53798;51.680;5.976;2022-09-24T05:10:40;101057.91;;;12.72;93.88
66887;BME280;53798;51.680;5.976;2022-09-24T05:13:08;101049.97;;;12.72;93.92
66887;BME280;53798;51.680;5.976;2022-09-24T05:15:35;101053.47;;;12.73;93.98
66887;BME280;53798;51.680;5.976;2022-09-24T05:18:08;101065.75;;;12.76;94.03
66887;BME280;53798;51.680;5.976;2022-09-24T05:20:35;101057.81;;;12.76;94.00
66887;BME280;53798;51.680;5.976;2022-09-24T05:23:02;101063.03;;;12.77;93.85
66887;BME280;53798;51.680;5.976;2022-09-24T05:25:31;101062.97;;;12.79;93.91
66887;BME280;53798;51.680;5.976;2022-09-24T05:28:00;101071.72;;;12.81;93.96
66887;BME280;53798;51.680;5.976;2022-09-24T05:30:27;101067.31;;;12.81;93.96
66887;BME280;53798;51.680;5.976;2022-09-24T05:33:08;101062.81;;;12.83;93.88
66887;BME280;53798;51.680;5.976;2022-09-24T05:35:35;101065.34;;;12.86;93.96
66887;BME280;53798;51.680;5.976;2022-09-24T05:38:02;101068.88;;;12.87;93.90
66887;BME280;53798;51.680;5.976;2022-09-24T05:40:29;101068.81;;;12.88;93.88
66887;BME280;53798;51.680;5.976;2022-09-24T05:43:18;101072.31;;;12.89;93.66
66887;BME280;53798;51.680;5.976;2022-09-24T05:45:46;101067.94;;;12.88;93.75
66887;BME280;53798;51.680;5.976;2022-09-24T05:48:16;101068.88;;;12.87;93.50
66887;BME280;53798;51.680;5.976;2022-09-24T05:50:43;101069.72;;;12.87;93.55
66887;BME280;53798;51.680;5.976;2022-09-24T05:53:10;101074.03;;;12.90;93.55
66887;BME280;53798;51.680;5.976;2022-09-24T05:55:37;101072.28;;;12.91;93.13
66887;BME280;53798;51.680;5.976;2022-09-24T05:58:06;101075.84;;;12.89;93.22
66887;BME280;53798;51.680;5.976;2022-09-24T06:00:39;101070.53;;;12.89;93.41
66887;BME280;53798;51.680;5.976;2022-09-24T06:03:11;101071.38;;;12.90;93.43
66887;BME280;53798;51.680;5.976;2022-09-24T06:05:44;101076.56;;;12.93;93.31
66887;BME280;53798;51.680;5.976;2022-09-24T06:08:15;101074.75;;;12.95;93.49
66887;BME280;53798;51.680;5.976;2022-09-24T06:10:45;101071.13;;;12.98;93.28
66887;BME280;53798;51.680;5.976;2022-09-24T06:13:16;101076.34;;;12.99;93.17
66887;BME280;53798;51.680;5.976;2022-09-24T06:15:45;101075.41;;;13.00;93.05
66887;BME280;53798;51.680;5.976;2022-09-24T06:18:14;101073.66;;;13.01;93.07
66887;BME280;53798;51.680;5.976;2022-09-24T06:20:47;101070.94;;;13.02;93.00
66887;BME280;53798;51.680;5.976;2022-09-24T06:23:14;101074.41;;;13.04;92.98
66887;BME280;53798;51.680;5.976;2022-09-24T06:25:41;101078.72;;;13.07;92.73
66887;BME280;53798;51.680;5.976;2022-09-24T06:28:09;101082.16;;;13.09;92.73
66887;BME280;53798;51.680;5.976;2022-09-24T06:30:38;101082.91;;;13.13;92.95
66887;BME280;53798;51.680;5.976;2022-09-24T06:33:12;101084.53;;;13.17;92.89
66887;BME280;53798;51.680;5.976;2022-09-24T06:35:41;101081.75;;;13.20;93.11
66887;BME280;53798;51.680;5.976;2022-09-24T06:38:12;101091.41;;;13.23;92.94
66887;BME280;53798;51.680;5.976;2022-09-24T06:40:45;101092.19;;;13.25;92.86
66887;BME280;53798;51.680;5.976;2022-09-24T06:43:14;101096.44;;;13.29;92.86
66887;BME280;53798;51.680;5.976;2022-09-24T06:45:44;101093.69;;;13.32;92.90
66887;BME280;53798;51.680;5.976;2022-09-24T06:48:13;101098.75;;;13.38;92.88
66887;BME280;53798;51.680;5.976;2022-09-24T06:50:43;101093.38;;;13.41;92.66
66887;BME280;53798;51.680;5.976;2022-09-24T06:53:11;101103.78;;;13.46;92.89
66887;BME280;53798;51.680;5.976;2022-09-24T06:55:39;101101.88;;;13.49;92.66
66887;BME280;53798;51.680;5.976;2022-09-24T06:58:11;101096.41;;;13.54;92.65
66887;BME280;53798;51.680;5.976;2022-09-24T07:00:49;101102.44;;;13.58;92.24
66887;BME280;53798;51.680;5.976;2022-09-24T07:03:18;101106.75;;;13.60;91.91
66887;BME280;53798;51.680;5.976;2022-09-24T07:05:45;101102.25;;;13.62;91.89
66887;BME280;53798;51.680;5.976;2022-09-24T07:08:13;101095.97;;;13.65;92.04
66887;BME280;53798;51.680;5.976;2022-09-24T07:10:45;101101.16;;;13.68;92.02
66887;BME280;53798;51.680;5.976;2022-09-24T07:13:15;101108.13;;;13.71;91.89
66887;BME280;53798;51.680;5.976;2022-09-24T07:15:43;101107.19;;;13.72;91.78
66887;BME280;53798;51.680;5.976;2022-09-24T07:18:11;101114.16;;;13.74;91.63
66887;BME280;53798;51.680;5.976;2022-09-24T07:20:39;101118.59;;;13.74;91.08
66887;BME280;53798;51.680;5.976;2022-09-24T07:23:09;101114.22;;;13.73;91.09
66887;BME280;53798;51.680;5.976;2022-09-24T07:25:38;101125.75;;;13.72;90.41
66887;BME280;53798;51.680;5.976;2022-09-24T07:28:08;101133.75;;;13.70;90.77
66887;BME280;53798;51.680;5.976;2022-09-24T07:30:37;101120.44;;;13.72;91.15
66887;BME280;53798;51.680;5.976;2022-09-24T07:33:05;101123.00;;;13.75;90.90
66887;BME280;53798;51.680;5.976;2022-09-24T07:35:36;101125.63;;;13.75;91.10
66887;BME280;53798;51.680;5.976;2022-09-24T07:38:09;101120.41;;;13.73;90.59
66887;BME280;53798;51.680;5.976;2022-09-24T07:40:38;101127.53;;;13.71;90.73
66887;BME280;53798;51.680;5.976;2022-09-24T07:43:05;101132.03;;;13.69;91.14
66887;BME280;53798;51.680;5.976;2022-09-24T07:45:40;101132.94;;;13.68;91.21
66887;BME280;53798;51.680;5.976;2022-09-24T07:48:09;101133.88;;;13.67;91.32
66887;BME280;53798;51.680;5.976;2022-09-24T07:50:38;101125.06;;;13.66;91.40
66887;BME280;53798;51.680;5.976;2022-09-24T07:53:11;101132.94;;;13.68;91.46
66887;BME280;53798;51.680;5.976;2022-09-24T07:55:38;101140.06;;;13.68;91.58
66887;BME280;53798;51.680;5.976;2022-09-24T07:58:11;101138.31;;;13.66;91.74
66887;BME280;53798;51.680;5.976;2022-09-24T08:00:40;101135.72;;;13.65;91.81
66887;BME280;53798;51.680;5.976;2022-09-24T08:03:07;101138.44;;;13.63;91.84
66887;BME280;53798;51.680;5.976;2022-09-24T08:05:41;101137.59;;;13.63;91.97
66887;BME280;53798;51.680;5.976;2022-09-24T08:08:12;101141.16;;;13.62;91.96
66887;BME280;53798;51.680;5.976;2022-09-24T08:10:40;101144.66;;;13.62;91.96
66887;BME280;53798;51.680;5.976;2022-09-24T08:13:08;101149.09;;;13.62;91.96
66887;BME280;53798;51.680;5.976;2022-09-24T08:15:36;101147.38;;;13.61;91.93
66887;BME280;53798;51.680;5.976;2022-09-24T08:18:04;101147.41;;;13.59;91.91
66887;BME280;53798;51.680;5.976;2022-09-24T08:20:31;101150.06;;;13.59;92.04
66887;BME280;53798;51.680;5.976;2022-09-24T08:23:00;101160.63;;;13.61;92.14
66887;BME280;53798;51.680;5.976;2022-09-24T08:25:29;101157.22;;;13.57;92.25
66887;BME280;53798;51.680;5.976;2022-09-24T08:28:01;101154.56;;;13.57;92.13
66887;BME280;53798;51.680;5.976;2022-09-24T08:30:30;101160.72;;;13.58;92.20
66887;BME280;53798;51.680;5.976;2022-09-24T08:32:58;101164.19;;;13.60;92.24
66887;BME280;53798;51.680;5.976;2022-09-24T08:35:25;101159.72;;;13.60;92.33
66887;BME280;53798;51.680;5.976;2022-09-24T08:37:52;101160.53;;;13.62;92.63
66887;BME280;53798;51.680;5.976;2022-09-24T08:40:25;101153.34;;;13.66;92.48
66887;BME280;53798;51.680;5.976;2022-09-24T08:43:13;101162.84;;;13.72;92.45
66887;BME280;53798;51.680;5.976;2022-09-24T08:46:01;101157.50;;;13.73;92.58
66887;BME280;53798;51.680;5.976;2022-09-24T08:49:01;101170.75;;;13.73;92.78
66887;BME280;53798;51.680;5.976;2022-09-24T08:51:42;101167.09;;;13.76;92.69
66887;BME280;53798;51.680;5.976;2022-09-24T08:54:18;101172.41;;;13.76;92.72
66887;BME280;53798;51.680;5.976;2022-09-24T08:56:50;101174.00;;;13.80;92.52
66887;BME280;53798;51.680;5.976;2022-09-24T08:59:31;101173.03;;;13.82;92.48
66887;BME280;53798;51.680;5.976;2022-09-24T09:05:14;101181.00;;;13.82;92.62
66887;BME280;53798;51.680;5.976;2022-09-24T09:08:01;101184.50;;;13.83;92.74
66887;BME280;53798;51.680;5.976;2022-09-24T09:11:14;101184.38;;;13.86;92.84
66887;BME280;53798;51.680;5.976;2022-09-24T09:13:57;101185.06;;;13.91;92.89
66887;BME280;53798;51.680;5.976;2022-09-24T09:16:38;101176.91;;;13.96;92.65
66887;BME280;53798;51.680;5.976;2022-09-24T09:19:15;101180.28;;;14.01;92.77
66887;BME280;53798;51.680;5.976;2022-09-24T09:21:48;101185.31;;;14.07;92.73
66887;BME280;53798;51.680;5.976;2022-09-24T09:24:49;101178.91;;;14.13;92.66
66887;BME280;53798;51.680;5.976;2022-09-24T09:27:19;101182.19;;;14.20;92.77
66887;BME280;53798;51.680;5.976;2022-09-24T09:29:52;101187.22;;;14.26;92.56
66887;BME280;53798;51.680;5.976;2022-09-24T09:35:47;101187.81;;;14.34;92.62
66887;BME280;53798;51.680;5.976;2022-09-24T09:38:24;101186.81;;;14.37;92.62
66887;BME280;53798;51.680;5.976;2022-09-24T09:41:19;101183.09;;;14.41;92.26
66887;BME280;53798;51.680;5.976;2022-09-24T09:44:24;101189.16;;;14.44;92.02
66887;BME280;53798;51.680;5.976;2022-09-24T09:47:10;101189.88;;;14.48;91.88
66887;BME280;53798;51.680;5.976;2022-09-24T09:49:47;101189.56;;;14.56;91.73
66887;BME280;53798;51.680;5.976;2022-09-24T09:52:23;101193.81;;;14.60;91.55
66887;BME280;53798;51.680;5.976;2022-09-24T09:54:53;101194.53;;;14.64;91.13
66887;BME280;53798;51.680;5.976;2022-09-24T09:57:24;101191.72;;;14.68;91.01
66887;BME280;53798;51.680;5.976;2022-09-24T09:59:53;101194.19;;;14.73;90.33
66887;BME280;53798;51.680;5.976;2022-09-24T10:04:55;101191.28;;;14.79;89.56
66887;BME280;53798;51.680;5.976;2022-09-24T10:07:24;101192.94;;;14.82;89.70
66887;BME280;53798;51.680;5.976;2022-09-24T10:10:19;101193.47;;;14.90;89.43
66887;BME280;53798;51.680;5.976;2022-09-24T10:13:10;101194.16;;;14.95;89.15
66887;BME280;53798;51.680;5.976;2022-09-24T10:15:47;101205.63;;;14.96;88.69
66887;BME280;53798;51.680;5.976;2022-09-24T10:18:35;101195.81;;;14.98;88.36
66887;BME280;53798;51.680;5.976;2022-09-24T10:21:11;101193.97;;;15.00;88.13
66887;BME280;53798;51.680;5.976;2022-09-24T10:23:57;101192.06;;;15.02;88.45
66887;BME280;53798;51.680;5.976;2022-09-24T10:26:38;101184.72;;;15.09;87.76
66887;BME280;53798;51.680;5.976;2022-09-24T10:29:15;101183.66;;;15.13;87.79
66887;BME280;53798;51.680;5.976;2022-09-24T10:32:28;101184.25;;;15.19;88.02
66887;BME280;53798;51.680;5.976;2022-09-24T10:35:13;101176.09;;;15.24;88.05
66887;BME280;53798;51.680;5.976;2022-09-24T10:37:57;101184.56;;;15.32;87.37
66887;BME280;53798;51.680;5.976;2022-09-24T10:40:37;101182.56;;;15.37;87.67
66887;BME280;53798;51.680;5.976;2022-09-24T10:43:06;101180.66;;;15.41;86.91
66887;BME280;53798;51.680;5.976;2022-09-24T10:45:59;101180.44;;;15.46;87.02
66887;BME280;53798;51.680;5.976;2022-09-24T10:54:51;101185.88;;;15.62;86.45
66887;BME280;53798;51.680;5.976;2022-09-24T10:57:48;101186.41;;;15.70;86.25
66887;BME280;53798;51.680;5.976;2022-09-24T11:00:38;101189.91;;;15.71;85.44
66887;BME280;53798;51.680;5.976;2022-09-24T11:09:54;101195.66;;;15.61;85.79
66887;BME280;53798;51.680;5.976;2022-09-24T11:12:40;101190.34;;;15.61;85.29
66887;BME280;53798;51.680;5.976;2022-09-24T11:27:40;101192.78;;;15.66;83.02
66887;BME280;53798;51.680;5.976;2022-09-24T11:30:19;101200.25;;;15.58;83.15
66887;BME280;53798;51.680;5.976;2022-09-24T11:38:46;101208.94;;;15.61;84.96
66887;BME280;53798;51.680;5.976;2022-09-24T11:53:34;101200.69;;;15.67;83.93
66887;BME280;53798;51.680;5.976;2022-09-24T11:56:14;101199.75;;;15.68;83.57
66887;BME280;53798;51.680;5.976;2022-09-24T11:58:48;101197.97;;;15.69;83.75
66887;BME280;53798;51.680;5.976;2022-09-24T12:01:22;101200.63;;;15.69;83.19
66887;BME280;53798;51.680;5.976;2022-09-24T12:04:11;101196.88;;;15.73;83.96
66887;BME280;53798;51.680;5.976;2022-09-24T12:06:47;101203.88;;;15.76;83.51
66887;BME280;53798;51.680;5.976;2022-09-24T12:09:29;101201.22;;;15.76;83.48
66887;BME280;53798;51.680;5.976;2022-09-24T12:12:20;101195.69;;;15.80;83.38
66887;BME280;53798;51.680;5.976;2022-09-24T12:15:11;101203.31;;;15.88;83.71
66887;BME280;53798;51.680;5.976;2022-09-24T12:17:57;101205.03;;;15.89;82.69
66887;BME280;53798;51.680;5.976;2022-09-24T12:20:46;101198.88;;;15.89;82.81
66887;BME280;53798;51.680;5.976;2022-09-24T12:23:21;101194.50;;;15.88;82.82
66887;BME280;53798;51.680;5.976;2022-09-24T12:25:56;101190.00;;;15.88;82.39
66887;BME280;53798;51.680;5.976;2022-09-24T12:28:34;101201.44;;;15.90;82.94
66887;BME280;53798;51.680;5.976;2022-09-24T12:31:43;101197.94;;;15.90;83.04
66887;BME280;53798;51.680;5.976;2022-09-24T12:34:43;101200.66;;;15.88;83.63
66887;BME280;53798;51.680;5.976;2022-09-24T12:37:15;101197.06;;;15.89;83.17
66887;BME280;53798;51.680;5.976;2022-09-24T12:40:02;101200.59;;;15.90;82.53
66887;BME280;53798;51.680;5.976;2022-09-24T12:42:48;101196.44;;;15.82;82.54
66887;BME280;53798;51.680;5.976;2022-09-24T12:45:23;101186.78;;;15.81;82.31
66887;BME280;53798;51.680;5.976;2022-09-24T12:47:57;101189.44;;;15.81;81.54
66887;BME280;53798;51.680;5.976;2022-09-24T12:50:32;101187.03;;;15.75;81.14
66887;BME280;53798;51.680;5.976;2022-09-24T12:53:21;101194.31;;;15.72;81.00
66887;BME280;53798;51.680;5.976;2022-09-24T12:55:51;101186.69;;;15.64;80.41
66887;BME280;53798;51.680;5.976;2022-09-24T12:58:27;101192.28;;;15.58;81.14
66887;BME280;53798;51.680;5.976;2022-09-24T13:01:24;101192.16;;;15.61;81.71
66887;BME280;53798;51.680;5.976;2022-09-24T13:06:54;101182.88;;;15.69;82.47
66887;BME280;53798;51.680;5.976;2022-09-24T13:09:40;101188.84;;;15.75;81.73
66887;BME280;53798;51.680;5.976;2022-09-24T13:14:54;101183.59;;;15.73;80.97
66887;BME280;53798;51.680;5.976;2022-09-24T13:17:33;101190.72;;;15.73;80.93
66887;BME280;53798;51.680;5.976;2022-09-24T13:20:18;101183.81;;;15.68;79.99
66887;BME280;53798;51.680;5.976;2022-09-24T13:26:04;101184.19;;;15.61;80.67
66887;BME280;53798;51.680;5.976;2022-09-24T13:31:44;101180.84;;;15.56;80.62
66887;BME280;53798;51.680;5.976;2022-09-24T13:36:58;101187.97;;;15.55;80.88
66887;BME280;53798;51.680;5.976;2022-09-24T13:42:31;101192.50;;;15.53;81.37
66887;BME280;53798;51.680;5.976;2022-09-24T13:45:08;101196.81;;;15.56;81.75
66887;BME280;53798;51.680;5.976;2022-09-24T13:50:33;101191.41;;;15.57;81.28
66887;BME280;53798;51.680;5.976;2022-09-24T13:53:25;101192.28;;;15.58;81.11
66887;BME280;53798;51.680;5.976;2022-09-24T13:55:59;101192.19;;;15.59;81.20
66887;BME280;53798;51.680;5.976;2022-09-24T13:58:32;101200.97;;;15.61;81.18
66887;BME280;53798;51.680;5.976;2022-09-24T14:01:03;101200.91;;;15.63;80.63
66887;BME280;53798;51.680;5.976;2022-09-24T14:03:39;101200.03;;;15.62;80.66
66887;BME280;53798;51.680;5.976;2022-09-24T14:06:13;101197.25;;;15.65;80.74
66887;BME280;53798;51.680;5.976;2022-09-24T14:08:45;101204.13;;;15.69;80.65
66887;BME280;53798;51.680;5.976;2022-09-24T14:11:21;101206.59;;;15.74;80.59
66887;BME280;53798;51.680;5.976;2022-09-24T14:13:52;101197.69;;;15.75;80.52
66887;BME280;53798;51.680;5.976;2022-09-24T14:16:24;101200.19;;;15.78;80.34
66887;BME280;53798;51.680;5.976;2022-09-24T14:19:03;101197.53;;;15.78;79.33
66887;BME280;53798;51.680;5.976;2022-09-24T14:21:56;101210.13;;;15.75;79.36
66887;BME280;53798;51.680;5.976;2022-09-24T14:24:27;101210.16;;;15.73;79.47
66887;BME280;53798;51.680;5.976;2022-09-24T14:27:13;101202.28;;;15.72;79.53
66887;BME280;53798;51.680;5.976;2022-09-24T14:30:05;101196.16;;;15.69;79.41
66887;BME280;53798;51.680;5.976;2022-09-24T14:32:40;101198.97;;;15.66;79.68
66887;BME280;53798;51.680;5.976;2022-09-24T14:35:20;101195.44;;;15.66;79.79
66887;BME280;53798;51.680;5.976;2022-09-24T14:38:15;101199.03;;;15.65;79.76
66887;BME280;53798;51.680;5.976;2022-09-24T14:40:59;101193.72;;;15.65;79.79
66887;BME280;53798;51.680;5.976;2022-09-24T14:46:17;101203.72;;;15.60;79.60
66887;BME280;53798;51.680;5.976;2022-09-24T14:48:49;101196.81;;;15.56;79.76
66887;BME280;53798;51.680;5.976;2022-09-24T14:51:36;101196.00;;;15.53;79.41
66887;BME280;53798;51.680;5.976;2022-09-24T14:56:48;101196.16;;;15.50;79.78
66887;BME280;53798;51.680;5.976;2022-09-24T14:59:26;101193.72;;;15.46;80.36
66887;BME280;53798;51.680;5.976;2022-09-24T15:02:24;101203.59;;;15.42;80.40
66887;BME280;53798;51.680;5.976;2022-09-24T15:05:01;101201.22;;;15.36;80.69